createdAt,value
2018-05-01T00:01:23.699Z,12.71
2018-05-01T00:03:52.049Z,12.64
2018-05-01T00:06:20.360Z,12.57
2018-05-01T00:08:48.713Z,12.62
2018-05-01T00:11:17.033Z,12.60
2018-05-01T00:13:45.367Z,12.57
2018-05-01T00:16:13.689Z,12.53
2018-05-01T00:18:42.024Z,12.49
2018-05-01T00:21:10.363Z,12.36
2018-05-01T00:23:38.757Z,12.27
2018-05-01T00:26:07.208Z,12.21
2018-05-01T00:28:35.532Z,12.10
2018-05-01T00:31:03.868Z,12.07
2018-05-01T00:33:32.179Z,12.04
2018-05-01T00:36:00.521Z,12.00
2018-05-01T00:38:28.835Z,11.97
2018-05-01T00:40:57.175Z,11.88
2018-05-01T00:43:25.492Z,11.81
2018-05-01T00:45:53.836Z,11.75
2018-05-01T00:48:22.149Z,11.75
2018-05-01T00:50:50.489Z,11.73
2018-05-01T00:53:18.799Z,11.75
2018-05-01T00:55:47.137Z,11.81
2018-05-01T00:58:15.448Z,11.84
2018-05-01T01:00:43.780Z,11.89
2018-05-01T01:03:12.099Z,11.87
2018-05-01T01:05:40.432Z,11.75
2018-05-01T01:08:08.747Z,11.69
2018-05-01T01:10:37.083Z,11.68
2018-05-01T01:13:05.409Z,11.65
2018-05-01T01:15:33.752Z,11.61
2018-05-01T01:18:02.073Z,11.56
2018-05-01T01:20:30.424Z,11.49
2018-05-01T01:22:58.760Z,11.46
2018-05-01T01:25:27.109Z,11.44
2018-05-01T01:27:55.428Z,11.47
2018-05-01T01:30:23.771Z,11.39
2018-05-01T01:32:52.867Z,11.33
2018-05-01T01:35:20.648Z,11.31
2018-05-01T01:37:48.444Z,11.30
2018-05-01T01:40:16.224Z,11.31
2018-05-01T01:42:44.025Z,11.29
2018-05-01T01:45:11.804Z,11.25
2018-05-01T01:47:39.597Z,11.17
2018-05-01T01:50:07.380Z,11.29
2018-05-01T01:52:35.185Z,11.37
2018-05-01T01:55:02.969Z,11.36
2018-05-01T01:57:30.769Z,11.32
2018-05-01T01:59:58.560Z,11.22
2018-05-01T02:02:26.392Z,11.02
2018-05-01T02:04:54.158Z,10.92
2018-05-01T02:07:21.949Z,10.86
2018-05-01T02:09:49.719Z,10.93
2018-05-01T02:12:17.516Z,10.96
2018-05-01T02:14:46.692Z,10.88
2018-05-01T02:17:14.496Z,10.72
2018-05-01T02:19:42.276Z,10.71
2018-05-01T02:22:10.081Z,10.75
2018-05-01T02:24:37.859Z,10.68
2018-05-01T02:27:05.673Z,10.41
2018-05-01T02:29:33.444Z,10.33
2018-05-01T02:32:01.256Z,10.34
2018-05-01T02:34:29.025Z,10.39
2018-05-01T02:36:56.804Z,10.37
2018-05-01T02:39:24.596Z,10.30
2018-05-01T02:41:52.373Z,10.28
2018-05-01T02:44:20.173Z,10.23
2018-05-01T02:46:47.945Z,10.27
2018-05-01T02:49:15.752Z,10.31
2018-05-01T02:51:43.533Z,10.34
2018-05-01T02:54:11.324Z,10.29
2018-05-01T02:56:39.105Z,10.21
2018-05-01T02:59:06.904Z,10.18
2018-05-01T03:01:34.677Z,10.23
2018-05-01T03:04:02.477Z,10.22
2018-05-01T03:06:30.256Z,10.08
2018-05-01T03:08:58.056Z,10.08
2018-05-01T03:11:25.831Z,10.06
2018-05-01T03:13:53.624Z,10.06
2018-05-01T03:16:21.507Z,10.04
2018-05-01T03:18:49.281Z,9.96
2018-05-01T03:21:17.052Z,9.99
2018-05-01T03:23:44.850Z,10.00
2018-05-01T03:26:12.625Z,9.96
2018-05-01T03:28:40.420Z,9.92
2018-05-01T03:31:08.195Z,9.83
2018-05-01T03:33:35.983Z,9.89
2018-05-01T03:36:03.759Z,9.94
2018-05-01T03:38:31.556Z,9.93
2018-05-01T03:40:59.324Z,9.91
2018-05-01T03:43:27.096Z,9.78
2018-05-01T03:45:54.885Z,9.73
2018-05-01T03:48:22.656Z,9.80
2018-05-01T03:50:50.453Z,9.73
2018-05-01T03:53:18.224Z,9.60
2018-05-01T03:55:46.064Z,9.56
2018-05-01T03:58:13.797Z,9.54
2018-05-01T04:00:41.589Z,9.55
2018-05-01T04:03:09.361Z,9.54
2018-05-01T04:05:37.157Z,9.55
2018-05-01T04:08:04.929Z,9.48
2018-05-01T04:10:32.721Z,9.38
2018-05-01T04:13:00.492Z,9.33
2018-05-01T04:15:28.284Z,9.30
2018-05-01T04:17:56.053Z,9.33
2018-05-01T04:20:23.840Z,9.29
2018-05-01T04:22:51.611Z,9.31
2018-05-01T04:25:19.467Z,9.27
2018-05-01T04:27:47.164Z,9.26
2018-05-01T04:30:14.964Z,9.22
2018-05-01T04:32:42.736Z,9.22
2018-05-01T04:35:10.525Z,9.22
2018-05-01T04:37:38.305Z,9.13
2018-05-01T04:40:06.083Z,9.15
2018-05-01T04:42:33.883Z,9.16
2018-05-01T04:45:01.653Z,9.18
2018-05-01T04:47:29.454Z,9.16
2018-05-01T04:49:57.212Z,9.12
2018-05-01T04:52:25.005Z,9.15
2018-05-01T04:54:52.776Z,9.15
2018-05-01T04:57:20.569Z,9.14
2018-05-01T04:59:48.340Z,9.11
2018-05-01T05:02:16.137Z,9.18
2018-05-01T05:04:43.909Z,9.16
2018-05-01T05:07:11.708Z,9.16
2018-05-01T05:09:39.477Z,9.12
2018-05-01T05:12:07.271Z,9.09
2018-05-01T05:14:35.040Z,9.04
2018-05-01T05:17:02.834Z,9.08
2018-05-01T05:19:30.601Z,9.12
2018-05-01T05:21:58.405Z,9.17
2018-05-01T05:24:26.176Z,9.09
2018-05-01T05:26:53.965Z,9.12
2018-05-01T05:29:21.736Z,9.13
2018-05-01T05:31:49.532Z,9.19
2018-05-01T05:34:17.305Z,9.23
2018-05-01T05:36:45.088Z,9.25
2018-05-01T05:39:12.876Z,9.21
2018-05-01T05:41:40.654Z,9.15
2018-05-01T05:44:08.436Z,9.12
2018-05-01T05:46:36.212Z,9.15
2018-05-01T05:49:04.004Z,9.13
2018-05-01T05:51:31.784Z,9.09
2018-05-01T05:53:59.579Z,9.06
2018-05-01T05:56:27.352Z,9.05
2018-05-01T05:58:55.140Z,9.09
2018-05-01T06:01:22.908Z,9.07
2018-05-01T06:03:50.700Z,9.07
2018-05-01T06:06:18.474Z,9.10
2018-05-01T06:08:46.262Z,9.07
2018-05-01T06:11:14.029Z,9.15
2018-05-01T06:13:41.838Z,9.07
2018-05-01T06:16:09.600Z,9.09
2018-05-01T06:18:37.392Z,9.09
2018-05-01T06:21:05.164Z,9.10
2018-05-01T06:23:32.958Z,9.05
2018-05-01T06:26:00.733Z,9.02
2018-05-01T06:28:28.524Z,9.02
2018-05-01T06:30:56.290Z,9.05
2018-05-01T06:33:24.085Z,9.06
2018-05-01T06:35:51.857Z,9.10
2018-05-01T06:38:19.623Z,9.12
2018-05-01T06:40:47.416Z,9.07
2018-05-01T06:43:15.181Z,8.99
2018-05-01T06:45:42.975Z,9.00
2018-05-01T06:48:10.740Z,8.99
2018-05-01T06:50:38.540Z,9.04
2018-05-01T06:53:06.300Z,8.98
2018-05-01T06:55:34.090Z,8.96
2018-05-01T06:58:01.907Z,8.99
2018-05-01T07:00:29.677Z,8.99
2018-05-01T07:02:57.444Z,8.93
2018-05-01T07:05:25.240Z,8.95
2018-05-01T07:07:53.012Z,9.00
2018-05-01T07:10:20.888Z,8.98
2018-05-01T07:12:48.584Z,9.01
2018-05-01T07:15:16.368Z,9.02
2018-05-01T07:17:44.136Z,8.97
2018-05-01T07:20:11.907Z,8.94
2018-05-01T07:22:39.708Z,8.97
2018-05-01T07:25:07.485Z,9.00
2018-05-01T07:27:35.345Z,9.03
2018-05-01T07:30:03.061Z,8.99
2018-05-01T07:32:30.865Z,9.00
2018-05-01T07:34:58.642Z,8.99
2018-05-01T07:37:26.456Z,9.05
2018-05-01T07:39:54.228Z,9.05
2018-05-01T07:42:22.029Z,9.10
2018-05-01T07:44:49.804Z,9.09
2018-05-01T07:47:17.604Z,9.04
2018-05-01T07:49:45.385Z,9.13
2018-05-01T07:52:13.193Z,9.19
2018-05-01T07:54:41.631Z,9.22
2018-05-01T07:57:09.424Z,9.16
2018-05-01T07:59:37.210Z,9.15
2018-05-01T08:02:05.095Z,9.13
2018-05-01T08:04:32.874Z,9.15
2018-05-01T08:07:00.723Z,9.16
2018-05-01T08:09:28.452Z,9.15
2018-05-01T08:11:56.296Z,9.11
2018-05-01T08:14:24.077Z,9.11
2018-05-01T08:16:51.862Z,9.11
2018-05-01T08:19:19.662Z,9.12
2018-05-01T08:21:47.441Z,9.13
2018-05-01T08:24:15.344Z,9.18
2018-05-01T08:26:43.309Z,9.24
2018-05-01T08:29:11.130Z,9.26
2018-05-01T08:31:39.033Z,9.24
2018-05-01T08:34:06.847Z,9.16
2018-05-01T08:36:34.639Z,9.19
2018-05-01T08:39:02.468Z,9.24
2018-05-01T08:41:30.280Z,9.31
2018-05-01T08:43:58.088Z,9.30
2018-05-01T08:46:25.874Z,9.33
2018-05-01T08:48:53.673Z,9.39
2018-05-01T08:51:21.452Z,9.35
2018-05-01T08:53:49.493Z,9.32
2018-05-01T08:56:17.281Z,9.32
2018-05-01T08:58:45.668Z,9.38
2018-05-01T09:01:13.508Z,9.39
2018-05-01T09:03:42.018Z,9.39
2018-05-01T09:06:09.813Z,9.36
2018-05-01T09:08:37.634Z,9.45
2018-05-01T09:11:05.509Z,9.50
2018-05-01T09:13:33.322Z,9.49
2018-05-01T09:16:01.109Z,9.54
2018-05-01T09:21:13.096Z,9.55
2018-05-01T09:23:40.909Z,9.62
2018-05-01T09:26:09.496Z,9.73
2018-05-01T09:28:37.321Z,9.77
2018-05-01T09:31:05.121Z,9.78
2018-05-01T09:33:32.916Z,9.76
2018-05-01T09:36:00.743Z,9.82
2018-05-01T09:38:28.533Z,9.88
2018-05-01T09:40:56.370Z,9.91
2018-05-01T09:43:24.544Z,9.91
2018-05-01T09:45:52.365Z,9.92
2018-05-01T09:48:20.167Z,9.95
2018-05-01T09:50:47.989Z,9.98
2018-05-01T09:53:16.346Z,10.06
2018-05-01T09:55:44.693Z,10.06
2018-05-01T09:58:13.037Z,10.08
2018-05-01T10:00:41.384Z,10.11
2018-05-01T10:03:10.540Z,10.19
2018-05-01T10:05:38.897Z,10.27
2018-05-01T10:08:07.228Z,10.31
2018-05-01T10:10:35.580Z,10.40
2018-05-01T10:13:03.916Z,10.43
2018-05-01T10:15:32.267Z,10.51
2018-05-01T10:18:00.604Z,10.52
2018-05-01T10:20:28.956Z,10.61
2018-05-01T10:22:59.228Z,10.55
2018-05-01T10:25:27.584Z,10.68
2018-05-01T10:27:55.911Z,10.85
2018-05-01T10:30:24.264Z,10.95
2018-05-01T10:32:52.605Z,10.93
2018-05-01T10:35:21.353Z,10.85
2018-05-01T10:37:50.043Z,10.73
2018-05-01T10:40:18.611Z,10.71
2018-05-01T10:42:48.419Z,10.76
2018-05-01T10:45:17.173Z,10.75
2018-05-01T10:47:45.853Z,10.78
2018-05-01T10:50:14.294Z,10.88
2018-05-01T10:52:42.620Z,10.88
2018-05-01T10:55:10.973Z,10.89
2018-05-01T10:57:39.310Z,11.00
2018-05-01T11:00:07.669Z,11.16
2018-05-01T11:02:36.025Z,11.47
2018-05-01T11:05:04.369Z,11.61
2018-05-01T11:07:32.704Z,11.76
2018-05-01T11:10:01.057Z,11.97
2018-05-01T11:12:29.398Z,12.01
2018-05-01T11:14:57.761Z,12.00
2018-05-01T11:17:26.122Z,12.17
2018-05-01T11:19:54.436Z,12.33
2018-05-01T11:22:23.137Z,12.43
2018-05-01T11:24:51.497Z,12.51
2018-05-01T11:27:19.824Z,12.55
2018-05-01T11:29:48.195Z,12.61
2018-05-01T11:32:16.517Z,12.63
2018-05-01T11:34:44.881Z,12.73
2018-05-01T11:37:13.210Z,12.70
2018-05-01T11:39:41.536Z,12.85
2018-05-01T11:42:10.936Z,13.12
2018-05-01T11:44:39.275Z,13.14
2018-05-01T11:47:07.633Z,13.20
2018-05-01T11:49:35.980Z,13.17
2018-05-01T11:52:04.329Z,13.20
2018-05-01T11:54:32.659Z,13.33
2018-05-01T11:57:01.017Z,13.37
2018-05-01T11:59:29.347Z,13.19
2018-05-01T12:01:58.461Z,13.03
2018-05-01T12:04:26.799Z,13.07
2018-05-01T12:06:55.149Z,13.21
2018-05-01T12:09:23.494Z,13.44
2018-05-01T12:11:51.857Z,13.56
2018-05-01T12:14:20.203Z,13.50
2018-05-01T12:16:48.548Z,13.74
2018-05-01T12:19:16.893Z,13.93
2018-05-01T12:21:45.305Z,13.88
2018-05-01T12:24:13.657Z,13.93
2018-05-01T12:26:42.005Z,14.03
2018-05-01T12:29:10.336Z,13.92
2018-05-01T12:31:38.689Z,13.87
2018-05-01T12:34:07.019Z,13.68
2018-05-01T12:36:35.474Z,13.59
2018-05-01T12:39:03.828Z,13.58
2018-05-01T12:41:33.076Z,13.71
2018-05-01T12:44:01.422Z,13.70
2018-05-01T12:46:29.779Z,13.94
2018-05-01T12:48:58.108Z,14.26
2018-05-01T12:51:26.592Z,14.39
2018-05-01T12:53:55.049Z,14.41
2018-05-01T12:56:23.392Z,14.36
2018-05-01T12:58:51.728Z,14.43
2018-05-01T13:01:20.086Z,14.19
2018-05-01T13:03:48.416Z,14.21
2018-05-01T13:06:16.773Z,14.29
2018-05-01T13:08:45.106Z,14.26
2018-05-01T13:11:13.481Z,14.19
2018-05-01T13:13:41.893Z,14.21
2018-05-01T13:16:10.165Z,14.21
2018-05-01T13:18:38.501Z,14.13
2018-05-01T13:21:07.304Z,14.32
2018-05-01T13:23:35.645Z,14.62
2018-05-01T13:26:04.005Z,14.69
2018-05-01T13:28:32.345Z,14.80
2018-05-01T13:31:00.693Z,14.83
2018-05-01T13:33:29.025Z,15.00
2018-05-01T13:35:57.369Z,14.98
2018-05-01T13:38:25.713Z,14.92
2018-05-01T13:40:54.040Z,14.84
2018-05-01T13:43:22.406Z,14.83
2018-05-01T13:45:50.769Z,14.87
2018-05-01T13:48:19.100Z,14.90
2018-05-01T13:50:47.441Z,14.98
2018-05-01T13:53:15.797Z,15.05
2018-05-01T13:55:44.129Z,15.09
2018-05-01T13:58:12.501Z,15.11
2018-05-01T14:00:40.824Z,15.32
2018-05-01T14:03:09.173Z,15.29
2018-05-01T14:05:37.582Z,15.22
2018-05-01T14:08:05.924Z,15.28
2018-05-01T14:10:34.260Z,15.34
2018-05-01T14:13:04.512Z,15.38
2018-05-01T14:15:32.848Z,15.33
2018-05-01T14:18:01.208Z,15.35
2018-05-01T14:20:29.540Z,15.39
2018-05-01T14:22:57.901Z,15.55
2018-05-01T14:25:26.299Z,15.64
2018-05-01T14:27:54.604Z,15.50
2018-05-01T14:30:22.940Z,15.38
2018-05-01T14:32:53.052Z,15.43
2018-05-01T14:35:21.382Z,15.41
2018-05-01T14:37:49.738Z,15.48
2018-05-01T14:40:18.069Z,15.44
2018-05-01T14:42:46.415Z,15.51
2018-05-01T14:45:14.740Z,15.57
2018-05-01T14:47:43.100Z,15.64
2018-05-01T14:50:11.438Z,15.53
2018-05-01T14:52:40.915Z,15.51
2018-05-01T14:55:09.482Z,15.55
2018-05-01T14:57:37.849Z,15.52
2018-05-01T15:00:06.181Z,15.67
2018-05-01T15:02:34.550Z,15.71
2018-05-01T15:05:02.877Z,15.70
2018-05-01T15:07:31.238Z,15.72
2018-05-01T15:09:59.569Z,15.73
2018-05-01T15:12:29.454Z,15.70
2018-05-01T15:14:57.789Z,15.67
2018-05-01T15:17:26.158Z,15.69
2018-05-01T15:19:54.489Z,15.65
2018-05-01T15:22:22.848Z,15.62
2018-05-01T15:24:51.181Z,15.52
2018-05-01T15:27:19.541Z,15.41
2018-05-01T15:29:47.881Z,15.38
2018-05-01T15:32:18.261Z,15.58
2018-05-01T15:34:46.570Z,15.59
2018-05-01T15:37:14.916Z,15.36
2018-05-01T15:39:43.485Z,15.29
2018-05-01T15:42:11.847Z,15.34
2018-05-01T15:44:40.187Z,15.31
2018-05-01T15:47:08.519Z,15.31
2018-05-01T15:49:36.868Z,15.27
2018-05-01T15:52:06.096Z,15.23
2018-05-01T15:54:34.442Z,15.18
2018-05-01T15:57:02.776Z,15.17
2018-05-01T15:59:31.137Z,15.16
2018-05-01T16:01:59.468Z,15.19
2018-05-01T16:04:27.826Z,15.07
2018-05-01T16:06:56.156Z,15.07
2018-05-01T16:09:24.531Z,15.05
2018-05-01T16:11:53.792Z,14.97
2018-05-01T16:14:22.288Z,14.94
2018-05-01T16:16:50.495Z,14.96
2018-05-01T16:19:18.849Z,14.98
2018-05-01T16:21:47.178Z,15.09
2018-05-01T16:24:15.540Z,15.12
2018-05-01T16:26:43.868Z,15.10
2018-05-01T16:29:12.228Z,15.09
2018-05-01T16:31:41.510Z,15.23
2018-05-01T16:34:09.912Z,15.23
2018-05-01T16:36:38.250Z,15.26
2018-05-01T16:39:06.607Z,15.16
2018-05-01T16:41:34.945Z,15.15
2018-05-01T16:44:03.296Z,15.09
2018-05-01T16:46:31.649Z,15.06
2018-05-01T16:49:00.005Z,15.06
2018-05-01T16:51:28.345Z,15.01
2018-05-01T16:53:56.692Z,14.91
2018-05-01T16:56:25.021Z,14.86
2018-05-01T16:58:53.392Z,14.81
2018-05-01T17:01:21.722Z,14.83
2018-05-01T17:03:50.080Z,14.81
2018-05-01T17:06:18.414Z,14.85
2018-05-01T17:08:46.767Z,14.83
2018-05-01T17:11:15.108Z,14.84
2018-05-01T17:13:43.476Z,14.83
2018-05-01T17:16:11.887Z,14.78
2018-05-01T17:18:40.243Z,14.80
2018-05-01T17:21:08.577Z,14.83
2018-05-01T17:23:36.975Z,14.86
2018-05-01T17:26:05.301Z,14.77
2018-05-01T17:28:33.674Z,14.67
2018-05-01T17:31:02.021Z,14.67
2018-05-01T17:33:30.372Z,14.59
2018-05-01T17:35:58.700Z,14.54
2018-05-01T17:38:27.061Z,14.57
2018-05-01T17:40:55.401Z,14.59
2018-05-01T17:43:23.820Z,14.56
2018-05-01T17:45:52.141Z,14.53
2018-05-01T17:48:21.144Z,14.52
2018-05-01T17:50:49.472Z,14.47
2018-05-01T17:53:17.978Z,14.50
2018-05-01T17:55:46.366Z,14.46
2018-05-01T17:58:14.692Z,14.42
2018-05-01T18:00:43.048Z,14.42
2018-05-01T18:03:11.393Z,14.47
2018-05-01T18:05:39.749Z,14.51
2018-05-01T18:08:08.822Z,14.50
2018-05-01T18:10:37.172Z,14.55
2018-05-01T18:13:05.508Z,14.64
2018-05-01T18:15:34.060Z,14.69
2018-05-01T18:18:02.437Z,14.64
2018-05-01T18:20:30.783Z,14.64
2018-05-01T18:22:59.118Z,14.74
2018-05-01T18:25:27.561Z,14.79
2018-05-01T18:27:56.591Z,14.71
2018-05-01T18:30:24.949Z,14.64
2018-05-01T18:32:53.286Z,14.61
2018-05-01T18:35:21.646Z,14.56
2018-05-01T18:37:49.980Z,14.55
2018-05-01T18:40:18.337Z,14.51
2018-05-01T18:42:46.689Z,14.45
2018-05-01T18:45:15.058Z,14.41
2018-05-01T18:47:44.093Z,14.32
2018-05-01T18:50:12.462Z,14.35
2018-05-01T18:52:40.790Z,14.28
2018-05-01T18:55:09.220Z,14.23
2018-05-01T18:57:37.544Z,14.23
2018-05-01T19:00:05.910Z,14.16
2018-05-01T19:02:34.236Z,14.12
2018-05-01T19:05:02.599Z,14.06
2018-05-01T19:07:31.893Z,14.00
2018-05-01T19:10:00.486Z,13.94
2018-05-01T19:12:28.901Z,13.89
2018-05-01T19:14:57.256Z,13.80
2018-05-01T19:17:25.596Z,13.72
2018-05-01T19:19:53.967Z,13.67
2018-05-01T19:22:22.294Z,13.61
2018-05-01T19:24:50.695Z,13.51
2018-05-01T19:27:19.422Z,13.41
2018-05-01T19:29:47.960Z,13.30
2018-05-01T19:32:16.287Z,13.20
2018-05-01T19:34:44.637Z,13.10
2018-05-01T19:37:13.179Z,13.04
2018-05-01T19:39:41.838Z,12.99
2018-05-01T19:42:10.092Z,12.94
2018-05-01T19:44:38.449Z,12.88
2018-05-01T19:47:08.008Z,12.84
2018-05-01T19:49:36.357Z,12.80
2018-05-01T19:52:04.692Z,12.75
2018-05-01T19:54:33.057Z,12.66
2018-05-01T19:57:01.389Z,12.63
2018-05-01T19:59:29.716Z,12.60
2018-05-01T20:01:58.147Z,12.59
2018-05-01T20:04:26.471Z,12.55
2018-05-01T20:06:55.665Z,12.45
2018-05-01T20:09:23.988Z,12.39
2018-05-01T20:11:52.345Z,12.36
2018-05-01T20:14:20.689Z,12.29
2018-05-01T20:16:49.149Z,12.19
2018-05-01T20:19:17.492Z,12.07
2018-05-01T20:21:45.889Z,11.97
2018-05-01T20:24:14.216Z,11.92
2018-05-01T20:26:43.786Z,11.91
2018-05-01T20:29:12.142Z,11.84
2018-05-01T20:31:40.573Z,11.81
2018-05-01T20:34:11.757Z,11.70
2018-05-01T20:36:40.153Z,11.61
2018-05-01T20:39:08.817Z,11.52
2018-05-01T20:41:37.178Z,11.41
2018-05-01T20:44:05.544Z,11.28
2018-05-01T20:46:33.898Z,11.20
2018-05-01T20:49:03.030Z,11.11
2018-05-01T20:51:31.388Z,11.07
2018-05-01T20:53:59.716Z,11.00
2018-05-01T20:56:28.076Z,10.96
2018-05-01T20:58:56.405Z,10.99
2018-05-01T21:01:24.757Z,10.97
2018-05-01T21:03:53.083Z,10.96
2018-05-01T21:06:21.443Z,10.99
2018-05-01T21:08:50.737Z,10.96
2018-05-01T21:11:19.098Z,10.88
2018-05-01T21:13:47.425Z,10.83
2018-05-01T21:16:15.779Z,10.77
2018-05-01T21:18:44.113Z,10.71
2018-05-01T21:21:12.469Z,10.71
2018-05-01T21:23:40.800Z,10.71
2018-05-01T21:26:09.153Z,10.67
2018-05-01T21:28:38.271Z,10.56
2018-05-01T21:31:06.621Z,10.50
2018-05-01T21:33:34.952Z,10.42
2018-05-01T21:36:03.313Z,10.37
2018-05-01T21:38:31.648Z,10.33
2018-05-01T21:41:00.013Z,10.32
2018-05-01T21:43:28.350Z,10.26
2018-05-01T21:45:56.710Z,10.22
2018-05-01T21:48:26.016Z,10.21
2018-05-01T21:50:54.369Z,10.20
2018-05-01T21:53:22.709Z,10.13
2018-05-01T21:55:51.070Z,10.07
2018-05-01T21:58:19.400Z,10.06
2018-05-01T22:00:47.748Z,9.95
2018-05-01T22:03:16.076Z,9.91
2018-05-01T22:05:44.406Z,9.91
2018-05-01T22:08:12.758Z,9.87
2018-05-01T22:10:41.089Z,9.80
2018-05-01T22:13:09.436Z,9.68
2018-05-01T22:15:37.832Z,9.56
2018-05-01T22:18:06.120Z,9.49
2018-05-01T22:20:34.451Z,9.44
2018-05-01T22:23:02.805Z,9.41
2018-05-01T22:25:31.137Z,9.44
2018-05-01T22:28:00.381Z,9.42
2018-05-01T22:30:28.700Z,9.39
2018-05-01T22:32:57.044Z,9.41
2018-05-01T22:35:25.377Z,9.39
2018-05-01T22:37:53.733Z,9.33
2018-05-01T22:40:22.062Z,9.29
2018-05-01T22:42:50.417Z,9.24
2018-05-01T22:45:18.753Z,9.20
2018-05-01T22:47:47.108Z,9.15
2018-05-01T22:50:15.440Z,9.18
2018-05-01T22:52:43.781Z,9.16
2018-05-01T22:55:12.106Z,9.15
2018-05-01T22:57:40.449Z,9.12
2018-05-01T23:00:08.772Z,9.06
2018-05-01T23:02:36.837Z,9.07
2018-05-01T23:05:05.156Z,9.05
2018-05-01T23:07:33.497Z,9.02
2018-05-01T23:10:01.813Z,9.01
2018-05-01T23:12:30.153Z,8.99
2018-05-01T23:14:58.481Z,8.96
2018-05-01T23:17:26.822Z,8.97
2018-05-01T23:19:55.141Z,8.96
2018-05-01T23:22:23.486Z,8.95
2018-05-01T23:24:51.804Z,8.90
2018-05-01T23:27:20.148Z,8.81
2018-05-01T23:29:48.477Z,8.72
2018-05-01T23:32:16.826Z,8.66
2018-05-01T23:34:45.171Z,8.61
2018-05-01T23:37:13.497Z,8.54
2018-05-01T23:39:41.820Z,8.50
2018-05-01T23:42:10.169Z,8.46
2018-05-01T23:44:38.489Z,8.39
2018-05-01T23:47:06.824Z,8.41
2018-05-01T23:49:35.136Z,8.43
2018-05-01T23:52:03.481Z,8.46
2018-05-01T23:54:31.792Z,8.50
2018-05-01T23:57:00.142Z,8.49
2018-05-01T23:59:28.465Z,8.42
